Time,TemperatureF,DewpointF,PressureIn,WindDirection,WindDirectionDegrees,WindSpeedMPH,WindSpeedGustMPH,Humidity,HourlyPrecipIn,Conditions,Clouds,dailyrainin,SoftwareType,DateUTC
2013-06-26 00:00:00,67.5,58.9,29.90,SE,139,2.0,5.0,74,0.00,,,0.00,VWS V14.01,2013-06-26 07:00:00,
2013-06-26 00:05:00,67.6,58.7,29.90,SSE,162,4.0,6.0,73,0.00,,,0.00,VWS V14.01,2013-06-26 07:05:00,
2013-06-26 00:10:00,67.8,58.8,29.90,South,183,0.0,2.0,73,0.00,,,0.00,VWS V14.01,2013-06-26 07:10:00,
2013-06-26 00:15:00,67.8,58.8,29.90,SSW,204,0.0,1.0,73,0.00,,,0.00,VWS V14.01,2013-06-26 07:15:00,
2013-06-26 00:20:00,67.6,58.7,29.90,South,169,5.0,5.0,73,0.00,,,0.00,VWS V14.01,2013-06-26 07:20:00,
2013-06-26 00:25:00,67.5,58.9,29.90,SE,135,0.0,3.0,74,0.00,,,0.00,VWS V14.01,2013-06-26 07:25:00,
2013-06-26 00:30:00,67.3,58.7,29.90,SW,226,0.0,2.0,74,0.00,,,0.00,VWS V14.01,2013-06-26 07:30:00,
2013-06-26 00:35:00,67.1,58.9,29.90,SW,226,0.0,0.0,75,0.00,,,0.00,VWS V14.01,2013-06-26 07:35:00,
2013-06-26 00:40:00,66.8,59.0,29.90,ESE,107,3.0,4.0,76,0.00,,,0.00,VWS V14.01,2013-06-26 07:40:00,
2013-06-26 00:45:00,66.7,58.9,29.90,SSE,163,0.0,1.0,76,0.00,,,0.00,VWS V14.01,2013-06-26 07:45:00,
2013-06-26 00:51:00,66.6,58.8,29.90,SE,144,0.0,0.0,76,0.00,,,0.00,VWS V14.01,2013-06-26 07:51:00,
2013-06-26 00:55:00,66.4,59.0,29.90,SSE,156,0.0,1.0,77,0.00,,,0.00,VWS V14.01,2013-06-26 07:55:00,
2013-06-26 01:00:00,66.2,59.2,29.90,SSE,156,0.0,0.0,78,0.00,,,0.00,VWS V14.01,2013-06-26 08:00:00,
2013-06-26 01:05:00,66.1,58.7,29.90,SSE,156,0.0,0.0,77,0.00,,,0.00,VWS V14.01,2013-06-26 08:05:00,
2013-06-26 01:10:00,66.0,58.6,29.91,SSE,156,0.0,0.0,77,0.00,,,0.00,VWS V14.01,2013-06-26 08:10:00,
2013-06-26 01:15:00,66.0,58.6,29.91,SSE,156,0.0,0.0,77,0.00,,,0.00,VWS V14.01,2013-06-26 08:15:00,
2013-06-26 01:20:00,66.1,58.3,29.91,SSE,156,0.0,0.0,76,0.00,,,0.00,VWS V14.01,2013-06-26 08:20:00,
2013-06-26 01:25:00,66.0,58.2,29.91,SSE,156,0.0,0.0,76,0.00,,,0.00,VWS V14.01,2013-06-26 08:25:00,
2013-06-26 01:30:00,65.9,58.5,29.91,SSE,156,0.0,0.0,77,0.00,,,0.00,VWS V14.01,2013-06-26 08:30:00,
2013-06-26 01:35:00,65.7,58.3,29.91,SSE,156,0.0,0.0,77,0.00,,,0.00,VWS V14.01,2013-06-26 08:35:00,
2013-06-26 01:40:00,65.5,58.1,29.91,SSE,156,0.0,0.0,77,0.00,,,0.00,VWS V14.01,2013-06-26 08:40:00,
2013-06-26 01:45:00,65.4,58.4,29.91,SSE,156,0.0,0.0,78,0.00,,,0.00,VWS V14.01,2013-06-26 08:45:00,
2013-06-26 01:50:00,65.4,58.4,29.91,SSE,156,0.0,0.0,78,0.00,,,0.00,VWS V14.01,2013-06-26 08:50:00,
2013-06-26 01:56:00,65.2,58.5,29.91,SE,143,0.0,0.0,79,0.00,,,0.00,VWS V14.01,2013-06-26 08:56:00,
2013-06-26 02:00:00,65.1,58.8,29.91,SE,142,0.0,0.0,80,0.00,,,0.00,VWS V14.01,2013-06-26 09:00:00,
2013-06-26 02:05:00,65.1,58.8,29.91,SE,143,0.0,0.0,80,0.00,,,0.00,VWS V14.01,2013-06-26 09:05:00,
2013-06-26 02:10:00,65.0,58.7,29.91,SE,142,0.0,0.0,80,0.00,,,0.00,VWS V14.01,2013-06-26 09:10:00,
2013-06-26 02:15:00,64.8,58.8,29.91,SE,142,0.0,0.0,81,0.00,,,0.00,VWS V14.01,2013-06-26 09:15:00,
2013-06-26 02:20:00,64.6,58.7,29.91,SE,142,0.0,0.0,81,0.00,,,0.00,VWS V14.01,2013-06-26 09:20:00,
2013-06-26 02:25:00,64.5,58.5,29.91,SE,142,0.0,0.0,81,0.00,,,0.00,VWS V14.01,2013-06-26 09:25:00,
2013-06-26 02:30:00,64.4,58.1,29.91,SE,143,0.0,0.0,80,0.00,,,0.00,VWS V14.01,2013-06-26 09:30:00,
2013-06-26 02:36:00,64.3,57.7,29.91,SE,142,0.0,0.0,79,0.00,,,0.00,VWS V14.01,2013-06-26 09:36:00,
2013-06-26 02:41:00,64.2,57.6,29.91,SE,142,0.0,0.0,79,0.00,,,0.00,VWS V14.01,2013-06-26 09:41:00,
2013-06-26 02:46:00,64.2,57.2,29.91,SE,146,2.0,2.0,78,0.00,,,0.00,VWS V14.01,2013-06-26 09:46:00,
2013-06-26 02:51:00,64.6,57.2,29.91,SSE,148,2.0,3.0,77,0.00,,,0.00,VWS V14.01,2013-06-26 09:51:00,
2013-06-26 02:56:00,65.1,57.4,29.91,SE,131,2.0,3.0,76,0.00,,,0.00,VWS V14.01,2013-06-26 09:56:00,
2013-06-26 03:01:00,65.4,57.7,29.91,SE,125,1.0,2.0,76,0.00,,,0.00,VWS V14.01,2013-06-26 10:01:00,
2013-06-26 03:06:00,65.5,57.7,29.91,SE,128,1.0,2.0,76,0.00,,,0.00,VWS V14.01,2013-06-26 10:06:00,
2013-06-26 03:11:00,65.5,57.7,29.91,SE,138,1.0,2.0,76,0.00,,,0.00,VWS V14.01,2013-06-26 10:11:00,
2013-06-26 03:16:00,65.4,57.7,29.91,South,186,2.0,2.0,76,0.00,,,0.00,VWS V14.01,2013-06-26 10:16:00,
2013-06-26 03:21:00,65.3,57.9,29.91,SSW,193,1.0,2.0,77,0.00,,,0.00,VWS V14.01,2013-06-26 10:21:00,
2013-06-26 03:26:00,65.3,58.3,29.92,South,172,3.0,3.0,78,0.00,,,0.00,VWS V14.01,2013-06-26 10:26:00,
2013-06-26 03:31:00,65.3,58.6,29.91,SSW,200,2.0,3.0,79,0.00,,,0.00,VWS V14.01,2013-06-26 10:31:00,
2013-06-26 03:36:00,65.3,58.6,29.91,SE,141,0.0,2.0,79,0.00,,,0.00,VWS V14.01,2013-06-26 10:36:00,
2013-06-26 03:41:00,65.3,58.6,29.92,SE,138,1.0,4.0,79,0.00,,,0.00,VWS V14.01,2013-06-26 10:41:00,
2013-06-26 03:46:00,65.3,58.6,29.92,SE,139,1.0,2.0,79,0.00,,,0.00,VWS V14.01,2013-06-26 10:46:00,
2013-06-26 03:51:00,65.3,58.6,29.92,SSE,160,1.0,2.0,79,0.00,,,0.00,VWS V14.01,2013-06-26 10:51:00,
2013-06-26 03:56:00,65.2,58.9,29.92,SE,144,2.0,3.0,80,0.00,,,0.00,VWS V14.01,2013-06-26 10:56:00,
2013-06-26 04:01:00,65.3,59.0,29.92,South,181,2.0,3.0,80,0.00,,,0.00,VWS V14.01,2013-06-26 11:01:00,
2013-06-26 04:06:00,65.3,59.0,29.92,SSE,166,2.0,2.0,80,0.00,,,0.00,VWS V14.01,2013-06-26 11:06:00,
2013-06-26 04:11:00,65.2,59.2,29.92,South,187,2.0,3.0,81,0.00,,,0.00,VWS V14.01,2013-06-26 11:11:00,
2013-06-26 04:16:00,65.1,59.1,29.92,SE,144,2.0,3.0,81,0.00,,,0.00,VWS V14.01,2013-06-26 11:16:00,
2013-06-26 04:21:00,64.9,59.3,29.92,SSE,160,2.0,3.0,82,0.00,,,0.00,VWS V14.01,2013-06-26 11:21:00,
2013-06-26 04:26:00,64.8,59.2,29.92,SE,143,3.0,4.0,82,0.00,,,0.00,VWS V14.01,2013-06-26 11:26:00,
2013-06-26 04:31:00,64.6,59.3,29.92,SSE,166,2.0,4.0,83,0.00,,,0.00,VWS V14.01,2013-06-26 11:31:00,
2013-06-26 04:36:00,64.5,59.2,29.92,SSE,150,3.0,3.0,83,0.00,,,0.00,VWS V14.01,2013-06-26 11:36:00,
2013-06-26 04:41:00,64.4,59.1,29.92,South,169,3.0,3.0,83,0.00,,,0.00,VWS V14.01,2013-06-26 11:41:00,
2013-06-26 04:46:00,64.3,59.4,29.92,SE,137,1.0,3.0,84,0.00,,,0.00,VWS V14.01,2013-06-26 11:46:00,
2013-06-26 04:51:00,64.1,59.2,29.92,SSE,158,3.0,4.0,84,0.00,,,0.00,VWS V14.01,2013-06-26 11:51:00,
2013-06-26 04:56:00,64.0,59.4,29.92,SSE,166,4.0,5.0,85,0.00,,,0.00,VWS V14.01,2013-06-26 11:56:00,
2013-06-26 05:01:00,63.8,59.2,29.92,SSE,161,3.0,4.0,85,0.00,,,0.00,VWS V14.01,2013-06-26 12:01:00,
2013-06-26 05:06:00,63.6,59.0,29.92,SW,219,0.0,1.0,85,0.00,,,0.00,VWS V14.01,2013-06-26 12:06:00,
2013-06-26 05:11:00,63.4,59.2,29.92,South,188,2.0,2.0,86,0.00,,,0.00,VWS V14.01,2013-06-26 12:11:00,
2013-06-26 05:16:00,63.3,59.0,29.93,SSE,163,0.0,0.0,86,0.00,,,0.00,VWS V14.01,2013-06-26 12:16:00,
2013-06-26 05:21:00,63.3,59.0,29.93,SSE,152,3.0,3.0,86,0.00,,,0.00,VWS V14.01,2013-06-26 12:21:00,
2013-06-26 05:26:00,63.2,59.3,29.93,SSE,150,0.0,2.0,87,0.00,,,0.00,VWS V14.01,2013-06-26 12:26:00,
2013-06-26 05:31:00,63.2,59.3,29.93,SE,134,1.0,2.0,87,0.00,,,0.00,VWS V14.01,2013-06-26 12:31:00,
2013-06-26 05:36:00,63.2,59.3,29.93,SE,131,2.0,2.0,87,0.00,,,0.00,VWS V14.01,2013-06-26 12:36:00,
2013-06-26 05:41:00,63.3,59.4,29.93,SE,131,2.0,2.0,87,0.00,,,0.00,VWS V14.01,2013-06-26 12:41:00,
2013-06-26 05:46:00,63.2,59.3,29.93,ESE,113,1.0,2.0,87,0.00,,,0.00,VWS V14.01,2013-06-26 12:46:00,
2013-06-26 05:51:00,63.2,59.3,29.93,SE,124,1.0,3.0,87,0.00,,,0.00,VWS V14.01,2013-06-26 12:51:00,
2013-06-26 05:56:00,63.2,59.3,29.93,SE,124,1.0,1.0,87,0.00,,,0.00,VWS V14.01,2013-06-26 12:56:00,
2013-06-26 06:01:00,63.1,59.2,29.93,SE,132,1.0,1.0,87,0.00,,,0.00,VWS V14.01,2013-06-26 13:01:00,
2013-06-26 06:06:00,63.1,59.2,29.93,SE,132,0.0,0.0,87,0.00,,,0.00,VWS V14.01,2013-06-26 13:06:00,
2013-06-26 06:11:00,63.2,59.3,29.93,SE,133,0.0,0.0,87,0.00,,,0.00,VWS V14.01,2013-06-26 13:11:00,
2013-06-26 06:16:00,63.4,59.5,29.93,SE,133,0.0,0.0,87,0.00,,,0.00,VWS V14.01,2013-06-26 13:16:00,
2013-06-26 06:21:00,63.8,59.5,29.93,SE,132,0.0,0.0,86,0.00,,,0.00,VWS V14.01,2013-06-26 13:21:00,
2013-06-26 06:26:00,64.1,59.8,29.93,SE,132,0.0,0.0,86,0.00,,,0.00,VWS V14.01,2013-06-26 13:26:00,
2013-06-26 06:31:00,64.3,59.7,29.93,SE,132,0.0,0.0,85,0.00,,,0.00,VWS V14.01,2013-06-26 13:31:00,
2013-06-26 06:36:00,64.4,59.8,29.93,SE,132,0.0,0.0,85,0.00,,,0.00,VWS V14.01,2013-06-26 13:36:00,
2013-06-26 06:41:00,64.5,59.9,29.93,SE,132,0.0,0.0,85,0.00,,,0.00,VWS V14.01,2013-06-26 13:41:00,
2013-06-26 06:46:00,64.9,60.3,29.93,SE,132,0.0,0.0,85,0.00,,,0.00,VWS V14.01,2013-06-26 13:46:00,
2013-06-26 06:51:00,65.4,60.5,29.93,SE,132,0.0,0.0,84,0.00,,,0.00,VWS V14.01,2013-06-26 13:51:00,
2013-06-26 06:56:00,65.6,60.3,29.93,SE,132,0.0,0.0,83,0.00,,,0.00,VWS V14.01,2013-06-26 13:56:00,
2013-06-26 07:01:00,65.7,60.4,29.93,SE,133,0.0,0.0,83,0.00,,,0.00,VWS V14.01,2013-06-26 14:01:00,
2013-06-26 07:06:00,66.1,60.8,29.93,SE,133,0.0,0.0,83,0.00,,,0.00,VWS V14.01,2013-06-26 14:06:00,
2013-06-26 07:11:00,66.4,61.1,29.93,SE,132,0.0,0.0,83,0.00,,,0.00,VWS V14.01,2013-06-26 14:11:00,
2013-06-26 07:16:00,66.4,60.7,29.93,SE,133,2.0,2.0,82,0.00,,,0.00,VWS V14.01,2013-06-26 14:16:00,
2013-06-26 07:21:00,66.3,60.3,29.93,ESE,120,2.0,2.0,81,0.00,,,0.00,VWS V14.01,2013-06-26 14:21:00,
2013-06-26 07:26:00,66.5,60.5,29.93,ESE,116,1.0,2.0,81,0.00,,,0.00,VWS V14.01,2013-06-26 14:26:00,
2013-06-26 07:31:00,66.9,60.5,29.94,ESE,114,1.0,1.0,80,0.00,,,0.00,VWS V14.01,2013-06-26 14:31:00,
2013-06-26 07:36:00,67.5,61.1,29.94,ESE,105,2.0,3.0,80,0.00,,,0.00,VWS V14.01,2013-06-26 14:36:00,
2013-06-26 07:41:00,68.0,60.9,29.94,South,169,2.0,3.0,78,0.00,,,0.00,VWS V14.01,2013-06-26 14:41:00,
2013-06-26 07:46:00,68.4,60.9,29.94,SSE,153,1.0,2.0,77,0.00,,,0.00,VWS V14.01,2013-06-26 14:46:00,
2013-06-26 07:51:00,68.8,60.9,29.94,SSE,149,2.0,3.0,76,0.00,,,0.00,VWS V14.01,2013-06-26 14:51:00,
2013-06-26 07:56:00,69.1,60.5,29.94,ESE,118,1.0,4.0,74,0.00,,,0.00,VWS V14.01,2013-06-26 14:56:00,
2013-06-26 08:01:00,69.2,61.0,29.94,SE,138,2.0,5.0,75,0.00,,,0.00,VWS V14.01,2013-06-26 15:01:00,
2013-06-26 08:06:00,69.2,61.0,29.94,SSE,150,2.0,3.0,75,0.00,,,0.00,VWS V14.01,2013-06-26 15:06:00,
2013-06-26 08:11:00,69.1,60.8,29.94,East,101,4.0,5.0,75,0.00,,,0.00,VWS V14.01,2013-06-26 15:11:00,
2013-06-26 08:16:00,69.2,61.0,29.94,South,176,6.0,6.0,75,0.00,,,0.00,VWS V14.01,2013-06-26 15:16:00,
2013-06-26 08:21:00,69.2,61.0,29.94,South,173,4.0,5.0,75,0.00,,,0.00,VWS V14.01,2013-06-26 15:21:00,
2013-06-26 08:26:00,69.6,61.3,29.94,ESE,110,3.0,3.0,75,0.00,,,0.00,VWS V14.01,2013-06-26 15:26:00,
2013-06-26 08:31:00,69.6,61.3,29.94,SSW,200,2.0,4.0,75,0.00,,,0.00,VWS V14.01,2013-06-26 15:31:00,
2013-06-26 08:36:00,70.0,61.3,29.94,SE,145,3.0,5.0,74,0.00,,,0.00,VWS V14.01,2013-06-26 15:36:00,
2013-06-26 08:41:00,70.4,61.3,29.94,ESE,107,3.0,3.0,73,0.00,,,0.00,VWS V14.01,2013-06-26 15:41:00,
2013-06-26 08:46:00,70.8,61.7,29.94,SE,139,2.0,5.0,73,0.00,,,0.00,VWS V14.01,2013-06-26 15:46:00,
2013-06-26 08:51:00,70.8,61.3,29.94,ESE,108,1.0,2.0,72,0.00,,,0.00,VWS V14.01,2013-06-26 15:51:00,
2013-06-26 08:56:00,71.1,61.6,29.94,SE,131,1.0,3.0,72,0.00,,,0.00,VWS V14.01,2013-06-26 15:56:00,
2013-06-26 09:01:00,71.4,61.5,29.94,SE,134,0.0,1.0,71,0.00,,,0.00,VWS V14.01,2013-06-26 16:01:00,
2013-06-26 09:06:00,72.0,62.1,29.94,ESE,102,2.0,2.0,71,0.00,,,0.00,VWS V14.01,2013-06-26 16:06:00,
2013-06-26 09:11:00,72.5,62.2,29.95,NNE,27,1.0,1.0,70,0.00,,,0.00,VWS V14.01,2013-06-26 16:11:00,
2013-06-26 09:16:00,72.8,62.9,29.94,ESE,117,0.0,0.0,71,0.00,,,0.00,VWS V14.01,2013-06-26 16:16:00,
2013-06-26 09:21:00,73.3,62.5,29.94,NNE,29,2.0,3.0,69,0.00,,,0.00,VWS V14.01,2013-06-26 16:21:00,
2013-06-26 09:26:00,73.4,63.0,29.95,NE,51,1.0,1.0,70,0.00,,,0.00,VWS V14.01,2013-06-26 16:26:00,
2013-06-26 09:31:00,73.9,63.1,29.95,SE,124,1.0,1.0,69,0.00,,,0.00,VWS V14.01,2013-06-26 16:31:00,
2013-06-26 09:36:00,74.4,63.6,29.95,NNE,12,0.0,1.0,69,0.00,,,0.00,VWS V14.01,2013-06-26 16:36:00,
2013-06-26 09:41:00,75.0,63.7,29.94,SE,124,2.0,3.0,68,0.00,,,0.00,VWS V14.01,2013-06-26 16:41:00,
2013-06-26 09:46:00,75.4,63.7,29.94,ENE,65,0.0,1.0,67,0.00,,,0.00,VWS V14.01,2013-06-26 16:46:00,
2013-06-26 09:51:00,75.9,63.3,29.94,SSE,150,3.0,4.0,65,0.00,,,0.00,VWS V14.01,2013-06-26 16:51:00,
2013-06-26 09:56:00,76.5,64.3,29.94,ESE,119,3.0,3.0,66,0.00,,,0.00,VWS V14.01,2013-06-26 16:56:00,
2013-06-26 10:01:00,76.7,63.2,29.94,SE,144,3.0,7.0,63,0.00,,,0.00,VWS V14.01,2013-06-26 17:01:00,
2013-06-26 10:06:00,76.9,63.4,29.94,SSE,156,5.0,8.0,63,0.00,,,0.00,VWS V14.01,2013-06-26 17:06:00,
2013-06-26 10:11:00,77.0,63.9,29.94,SSE,148,5.0,7.0,64,0.00,,,0.00,VWS V14.01,2013-06-26 17:11:00,
2013-06-26 10:16:00,77.5,63.9,29.94,South,180,1.0,4.0,63,0.00,,,0.00,VWS V14.01,2013-06-26 17:16:00,
2013-06-26 10:21:00,78.3,64.2,29.94,East,101,6.0,6.0,62,0.00,,,0.00,VWS V14.01,2013-06-26 17:21:00,
2013-06-26 10:26:00,78.5,63.5,29.94,ESE,105,2.0,6.0,60,0.00,,,0.00,VWS V14.01,2013-06-26 17:26:00,
2013-06-26 10:31:00,78.6,63.6,29.94,SE,142,2.0,4.0,60,0.00,,,0.00,VWS V14.01,2013-06-26 17:31:00,
2013-06-26 10:36:00,78.9,63.4,29.94,SE,124,4.0,5.0,59,0.00,,,0.00,VWS V14.01,2013-06-26 17:36:00,
2013-06-26 10:41:00,79.5,63.9,29.94,SE,127,5.0,5.0,59,0.00,,,0.00,VWS V14.01,2013-06-26 17:41:00,
2013-06-26 10:46:00,80.0,63.9,29.94,North,356,1.0,2.0,58,0.00,,,0.00,VWS V14.01,2013-06-26 17:46:00,
2013-06-26 10:51:00,80.7,64.1,29.94,NNE,21,1.0,1.0,57,0.00,,,0.00,VWS V14.01,2013-06-26 17:51:00,
2013-06-26 10:56:00,81.2,64.5,29.94,NE,47,2.0,3.0,57,0.00,,,0.00,VWS V14.01,2013-06-26 17:56:00,
2013-06-26 11:01:00,81.4,64.2,29.94,East,101,0.0,2.0,56,0.00,,,0.00,VWS V14.01,2013-06-26 18:01:00,
2013-06-26 11:06:00,81.9,64.7,29.94,East,94,0.0,1.0,56,0.00,,,0.00,VWS V14.01,2013-06-26 18:06:00,
2013-06-26 11:11:00,82.1,64.3,29.94,North,349,2.0,4.0,55,0.00,,,0.00,VWS V14.01,2013-06-26 18:11:00,
2013-06-26 11:16:00,82.7,64.4,29.94,East,82,1.0,2.0,54,0.00,,,0.00,VWS V14.01,2013-06-26 18:16:00,
2013-06-26 11:21:00,82.5,65.2,29.94,ESE,111,3.0,3.0,56,0.00,,,0.00,VWS V14.01,2013-06-26 18:21:00,
2013-06-26 11:26:00,82.0,65.3,29.94,SSE,162,6.0,8.0,57,0.00,,,0.00,VWS V14.01,2013-06-26 18:26:00,
2013-06-26 11:31:00,81.7,65.5,29.93,East,85,2.0,6.0,58,0.00,,,0.00,VWS V14.01,2013-06-26 18:31:00,
2013-06-26 11:36:00,81.2,64.5,29.93,ESE,112,7.0,9.0,57,0.00,,,0.00,VWS V14.01,2013-06-26 18:36:00,
2013-06-26 11:41:00,81.0,64.8,29.93,SSE,148,5.0,5.0,58,0.00,,,0.00,VWS V14.01,2013-06-26 18:41:00,
2013-06-26 11:46:00,81.6,64.9,29.93,SE,124,3.0,7.0,57,0.00,,,0.00,VWS V14.01,2013-06-26 18:46:00,
2013-06-26 11:51:00,82.2,65.0,29.93,East,93,5.0,6.0,56,0.00,,,0.00,VWS V14.01,2013-06-26 18:51:00,
2013-06-26 11:56:00,82.4,64.6,29.93,SSE,163,3.0,5.0,55,0.00,,,0.00,VWS V14.01,2013-06-26 18:56:00,
2013-06-26 12:01:00,82.7,64.9,29.93,ESE,114,6.0,6.0,55,0.00,,,0.00,VWS V14.01,2013-06-26 19:01:00,
2013-06-26 12:06:00,83.2,64.8,29.93,SE,137,0.0,4.0,54,0.00,,,0.00,VWS V14.01,2013-06-26 19:06:00,
2013-06-26 12:11:00,83.8,64.3,29.93,SW,227,2.0,6.0,52,0.00,,,0.00,VWS V14.01,2013-06-26 19:11:00,
2013-06-26 12:16:00,83.9,64.9,29.92,ESE,121,7.0,7.0,53,0.00,,,0.00,VWS V14.01,2013-06-26 19:16:00,
2013-06-26 12:21:00,84.0,64.5,29.92,SSE,166,3.0,7.0,52,0.00,,,0.00,VWS V14.01,2013-06-26 19:21:00,
2013-06-26 12:26:00,84.3,64.8,29.92,East,93,3.0,4.0,52,0.00,,,0.00,VWS V14.01,2013-06-26 19:26:00,
2013-06-26 12:31:00,84.2,64.7,29.92,SSE,147,7.0,8.0,52,0.00,,,0.00,VWS V14.01,2013-06-26 19:31:00,
2013-06-26 12:36:00,84.2,64.7,29.92,South,183,4.0,6.0,52,0.00,,,0.00,VWS V14.01,2013-06-26 19:36:00,
2013-06-26 12:41:00,84.2,64.1,29.92,South,169,7.0,11.0,51,0.00,,,0.00,VWS V14.01,2013-06-26 19:41:00,
2013-06-26 12:46:00,83.2,64.3,29.92,South,180,7.0,11.0,53,0.00,,,0.00,VWS V14.01,2013-06-26 19:46:00,
2013-06-26 12:51:00,83.1,64.2,29.91,SSE,149,7.0,7.0,53,0.00,,,0.00,VWS V14.01,2013-06-26 19:51:00,
2013-06-26 12:56:00,83.3,64.4,29.91,South,173,3.0,8.0,53,0.00,,,0.00,VWS V14.01,2013-06-26 19:56:00,
2013-06-26 13:01:00,83.0,64.1,29.91,East,96,5.0,10.0,53,0.00,,,0.00,VWS V14.01,2013-06-26 20:01:00,
2013-06-26 13:06:00,82.8,63.9,29.91,SE,138,3.0,7.0,53,0.00,,,0.00,VWS V14.01,2013-06-26 20:06:00,
2013-06-26 13:11:00,82.9,64.0,29.91,South,184,10.0,12.0,53,0.00,,,0.00,VWS V14.01,2013-06-26 20:11:00,
2013-06-26 13:16:00,82.6,63.2,29.91,SSE,160,11.0,14.0,52,0.00,,,0.00,VWS V14.01,2013-06-26 20:16:00,
2013-06-26 13:21:00,82.2,63.4,29.91,SE,125,7.0,11.0,53,0.00,,,0.00,VWS V14.01,2013-06-26 20:21:00,
2013-06-26 13:26:00,82.1,63.3,29.91,SSE,153,8.0,13.0,53,0.00,,,0.00,VWS V14.01,2013-06-26 20:26:00,
2013-06-26 13:31:00,81.9,63.1,29.91,SE,135,7.0,12.0,53,0.00,,,0.00,VWS V14.01,2013-06-26 20:31:00,
2013-06-26 13:36:00,82.2,63.4,29.91,ESE,103,11.0,11.0,53,0.00,,,0.00,VWS V14.01,2013-06-26 20:36:00,
2013-06-26 13:41:00,82.3,62.9,29.91,South,176,4.0,12.0,52,0.00,,,0.00,VWS V14.01,2013-06-26 20:41:00,
2013-06-26 13:46:00,81.9,62.6,29.91,ESE,117,5.0,15.0,52,0.00,,,0.00,VWS V14.01,2013-06-26 20:46:00,
2013-06-26 13:51:00,81.8,63.0,29.91,SSE,155,8.0,8.0,53,0.00,,,0.00,VWS V14.01,2013-06-26 20:51:00,
2013-06-26 13:56:00,82.1,63.3,29.91,South,176,6.0,11.0,53,0.00,,,0.00,VWS V14.01,2013-06-26 20:56:00,
2013-06-26 14:01:00,82.7,63.3,29.91,SE,143,12.0,14.0,52,0.00,,,0.00,VWS V14.01,2013-06-26 21:01:00,
2013-06-26 14:06:00,82.5,63.1,29.91,SSW,200,7.0,12.0,52,0.00,,,0.00,VWS V14.01,2013-06-26 21:06:00,
2013-06-26 14:11:00,82.1,62.8,29.91,SE,145,12.0,16.0,52,0.00,,,0.00,VWS V14.01,2013-06-26 21:11:00,
2013-06-26 14:16:00,82.3,62.9,29.91,SE,135,11.0,12.0,52,0.00,,,0.00,VWS V14.01,2013-06-26 21:16:00,
2013-06-26 14:21:00,82.8,62.8,29.90,SSW,211,10.0,11.0,51,0.00,,,0.00,VWS V14.01,2013-06-26 21:21:00,
2013-06-26 14:26:00,83.2,63.2,29.91,SSE,156,6.0,12.0,51,0.00,,,0.00,VWS V14.01,2013-06-26 21:26:00,
2013-06-26 14:31:00,83.4,62.8,29.90,SSE,153,4.0,13.0,50,0.00,,,0.00,VWS V14.01,2013-06-26 21:31:00,
2013-06-26 14:36:00,83.7,63.1,29.90,SE,134,4.0,10.0,50,0.00,,,0.00,VWS V14.01,2013-06-26 21:36:00,
2013-06-26 14:41:00,83.9,63.3,29.90,South,180,7.0,8.0,50,0.00,,,0.00,VWS V14.01,2013-06-26 21:41:00,
2013-06-26 14:46:00,84.3,63.1,29.90,SSE,150,7.0,7.0,49,0.00,,,0.00,VWS V14.01,2013-06-26 21:46:00,
2013-06-26 14:51:00,84.3,62.5,29.90,SSW,205,12.0,13.0,48,0.00,,,0.00,VWS V14.01,2013-06-26 21:51:00,
2013-06-26 14:56:00,84.1,62.9,29.90,SSE,150,6.0,13.0,49,0.00,,,0.00,VWS V14.01,2013-06-26 21:56:00,
2013-06-26 15:01:00,84.3,62.5,29.90,SSE,153,7.0,12.0,48,0.00,,,0.00,VWS V14.01,2013-06-26 22:01:00,
2013-06-26 15:06:00,84.6,62.8,29.89,SE,133,9.0,9.0,48,0.00,,,0.00,VWS V14.01,2013-06-26 22:06:00,
2013-06-26 15:11:00,83.9,62.7,29.89,ESE,108,6.0,8.0,49,0.00,,,0.00,VWS V14.01,2013-06-26 22:11:00,
2013-06-26 15:16:00,84.1,62.9,29.89,SE,145,4.0,9.0,49,0.00,,,0.00,VWS V14.01,2013-06-26 22:16:00,
2013-06-26 15:21:00,84.7,62.9,29.89,SW,224,5.0,9.0,48,0.00,,,0.00,VWS V14.01,2013-06-26 22:21:00,
2013-06-26 15:26:00,84.6,62.8,29.89,SSE,160,5.0,11.0,48,0.00,,,0.00,VWS V14.01,2013-06-26 22:26:00,
2013-06-26 15:31:00,84.7,62.9,29.89,SE,131,5.0,10.0,48,0.00,,,0.00,VWS V14.01,2013-06-26 22:31:00,
2013-06-26 15:36:00,84.9,63.0,29.89,South,178,7.0,9.0,48,0.00,,,0.00,VWS V14.01,2013-06-26 22:36:00,
2013-06-26 15:41:00,84.2,62.4,29.88,South,184,6.0,13.0,48,0.00,,,0.00,VWS V14.01,2013-06-26 22:41:00,
2013-06-26 15:46:00,83.0,62.5,29.88,SE,125,9.0,15.0,50,0.00,,,0.00,VWS V14.01,2013-06-26 22:46:00,
2013-06-26 15:51:00,82.3,62.4,29.88,SSW,196,10.0,11.0,51,0.00,,,0.00,VWS V14.01,2013-06-26 22:51:00,
2013-06-26 15:56:00,82.1,62.2,29.88,SSE,165,5.0,12.0,51,0.00,,,0.00,VWS V14.01,2013-06-26 22:56:00,
2013-06-26 16:01:00,81.6,62.3,29.88,South,173,5.0,17.0,52,0.00,,,0.00,VWS V14.01,2013-06-26 23:01:00,
2013-06-26 16:06:00,81.5,62.2,29.88,SE,141,8.0,12.0,52,0.00,,,0.00,VWS V14.01,2013-06-26 23:06:00,
2013-06-26 16:11:00,81.7,62.4,29.88,SSE,160,7.0,11.0,52,0.00,,,0.00,VWS V14.01,2013-06-26 23:11:00,
2013-06-26 16:16:00,82.0,62.1,29.87,SSE,147,8.0,14.0,51,0.00,,,0.00,VWS V14.01,2013-06-26 23:16:00,
2013-06-26 16:21:00,81.9,62.0,29.87,ESE,105,7.0,14.0,51,0.00,,,0.00,VWS V14.01,2013-06-26 23:21:00,
2013-06-26 16:26:00,81.5,61.7,29.87,SSE,166,15.0,15.0,51,0.00,,,0.00,VWS V14.01,2013-06-26 23:26:00,
2013-06-26 16:31:00,80.9,61.6,29.87,SSE,167,9.0,12.0,52,0.00,,,0.00,VWS V14.01,2013-06-26 23:31:00,
2013-06-26 16:36:00,80.3,61.6,29.87,South,169,9.0,17.0,53,0.00,,,0.00,VWS V14.01,2013-06-26 23:36:00,
2013-06-26 16:41:00,80.8,62.1,29.87,SE,143,13.0,14.0,53,0.00,,,0.00,VWS V14.01,2013-06-26 23:41:00,
2013-06-26 16:46:00,82.0,62.1,29.87,SSE,158,7.0,15.0,51,0.00,,,0.00,VWS V14.01,2013-06-26 23:46:00,
2013-06-26 16:51:00,83.0,62.5,29.87,South,190,7.0,9.0,50,0.00,,,0.00,VWS V14.01,2013-06-26 23:51:00,
2013-06-26 16:56:00,83.9,62.1,29.87,SSE,150,8.0,12.0,48,0.00,,,0.00,VWS V14.01,2013-06-26 23:56:00,
2013-06-26 17:01:00,84.2,62.4,29.87,South,179,3.0,10.0,48,0.00,,,0.00,VWS V14.01,2013-06-27 00:01:00,
2013-06-26 17:06:00,84.7,62.3,29.86,SSW,196,8.0,11.0,47,0.00,,,0.00,VWS V14.01,2013-06-27 00:06:00,
2013-06-26 17:11:00,85.1,62.6,29.86,SE,146,7.0,8.0,47,0.00,,,0.00,VWS V14.01,2013-06-27 00:11:00,
2013-06-26 17:16:00,85.3,62.2,29.86,South,170,4.0,6.0,46,0.00,,,0.00,VWS V14.01,2013-06-27 00:16:00,
2013-06-26 17:21:00,84.9,61.8,29.86,ESE,111,5.0,10.0,46,0.00,,,0.00,VWS V14.01,2013-06-27 00:21:00,
2013-06-26 17:26:00,84.1,62.3,29.86,SSE,150,9.0,9.0,48,0.00,,,0.00,VWS V14.01,2013-06-27 00:26:00,
2013-06-26 17:31:00,83.3,62.2,29.86,South,169,9.0,9.0,49,0.00,,,0.00,VWS V14.01,2013-06-27 00:31:00,
2013-06-26 17:36:00,82.4,62.5,29.86,SE,138,5.0,9.0,51,0.00,,,0.00,VWS V14.01,2013-06-27 00:36:00,
2013-06-26 17:41:00,82.0,63.2,29.86,SSE,162,3.0,7.0,53,0.00,,,0.00,VWS V14.01,2013-06-27 00:41:00,
2013-06-26 17:46:00,82.0,63.2,29.86,SE,135,3.0,6.0,53,0.00,,,0.00,VWS V14.01,2013-06-27 00:46:00,
2013-06-26 17:51:00,82.6,63.2,29.86,SE,143,3.0,5.0,52,0.00,,,0.00,VWS V14.01,2013-06-27 00:51:00,
2013-06-26 17:56:00,82.8,63.4,29.86,SSE,163,6.0,6.0,52,0.00,,,0.00,VWS V14.01,2013-06-27 00:56:00,
2013-06-26 18:01:00,82.8,63.4,29.86,ESE,116,4.0,5.0,52,0.00,,,0.00,VWS V14.01,2013-06-27 01:01:00,
2013-06-26 18:06:00,82.5,63.7,29.86,SE,145,4.0,5.0,53,0.00,,,0.00,VWS V14.01,2013-06-27 01:06:00,
2013-06-26 18:11:00,82.8,63.4,29.86,SE,138,4.0,4.0,52,0.00,,,0.00,VWS V14.01,2013-06-27 01:11:00,
2013-06-26 18:16:00,82.6,63.8,29.86,SSE,163,4.0,7.0,53,0.00,,,0.00,VWS V14.01,2013-06-27 01:16:00,
2013-06-26 18:21:00,82.4,63.6,29.86,SSE,148,4.0,5.0,53,0.00,,,0.00,VWS V14.01,2013-06-27 01:21:00,
2013-06-26 18:26:00,81.7,63.5,29.86,South,174,8.0,9.0,54,0.00,,,0.00,VWS V14.01,2013-06-27 01:26:00,
2013-06-26 18:31:00,80.2,63.1,29.86,SSE,160,6.0,8.0,56,0.00,,,0.00,VWS V14.01,2013-06-27 01:31:00,
2013-06-26 18:36:00,79.4,63.3,29.86,SSE,149,6.0,6.0,58,0.00,,,0.00,VWS V14.01,2013-06-27 01:36:00,
2013-06-26 18:41:00,79.3,63.7,29.86,SE,132,4.0,5.0,59,0.00,,,0.00,VWS V14.01,2013-06-27 01:41:00,
2013-06-26 18:46:00,79.4,63.8,29.86,SE,132,3.0,6.0,59,0.00,,,0.00,VWS V14.01,2013-06-27 01:46:00,
2013-06-26 18:51:00,80.1,63.5,29.86,SSE,152,4.0,5.0,57,0.00,,,0.00,VWS V14.01,2013-06-27 01:51:00,
2013-06-26 18:56:00,81.2,63.5,29.86,SSE,156,2.0,3.0,55,0.00,,,0.00,VWS V14.01,2013-06-27 01:56:00,
2013-06-26 19:01:00,82.8,63.9,29.86,SSE,150,1.0,1.0,53,0.00,,,0.00,VWS V14.01,2013-06-27 02:01:00,
2013-06-26 19:06:00,84.9,64.8,29.86,SSE,150,0.0,0.0,51,0.00,,,0.00,VWS V14.01,2013-06-27 02:06:00,
2013-06-26 19:11:00,86.8,64.8,29.86,SW,215,0.0,0.0,48,0.00,,,0.00,VWS V14.01,2013-06-27 02:11:00,
2013-06-26 19:16:00,88.0,63.4,29.86,NW,314,1.0,2.0,44,0.00,,,0.00,VWS V14.01,2013-06-27 02:16:00,
2013-06-26 19:21:00,87.9,63.9,29.86,NW,315,2.0,2.0,45,0.00,,,0.00,VWS V14.01,2013-06-27 02:21:00,
2013-06-26 19:26:00,87.6,63.7,29.85,NNW,336,2.0,2.0,45,0.00,,,0.00,VWS V14.01,2013-06-27 02:26:00,
2013-06-26 19:31:00,86.9,64.9,29.86,NNW,336,2.0,2.0,48,0.00,,,0.00,VWS V14.01,2013-06-27 02:31:00,
2013-06-26 19:36:00,86.2,64.8,29.86,NNW,347,3.0,4.0,49,0.00,,,0.00,VWS V14.01,2013-06-27 02:36:00,
2013-06-26 19:41:00,85.5,64.2,29.86,NNW,335,1.0,2.0,49,0.00,,,0.00,VWS V14.01,2013-06-27 02:41:00,
2013-06-26 19:46:00,85.0,64.3,29.86,NNW,342,1.0,3.0,50,0.00,,,0.00,VWS V14.01,2013-06-27 02:46:00,
2013-06-26 19:51:00,84.5,64.4,29.86,NNW,342,1.0,2.0,51,0.00,,,0.00,VWS V14.01,2013-06-27 02:51:00,
2013-06-26 19:56:00,83.9,64.9,29.86,NNW,342,0.0,0.0,53,0.00,,,0.00,VWS V14.01,2013-06-27 02:56:00,
2013-06-26 20:01:00,83.4,64.0,29.86,NNW,342,0.0,0.0,52,0.00,,,0.00,VWS V14.01,2013-06-27 03:01:00,
2013-06-26 20:06:00,83.0,64.1,29.86,NNW,342,0.0,0.0,53,0.00,,,0.00,VWS V14.01,2013-06-27 03:06:00,
2013-06-26 20:11:00,82.4,64.1,29.86,NNW,342,1.0,1.0,54,0.00,,,0.00,VWS V14.01,2013-06-27 03:11:00,
2013-06-26 20:16:00,82.0,64.3,29.86,NNW,342,0.0,0.0,55,0.00,,,0.00,VWS V14.01,2013-06-27 03:16:00,
2013-06-26 20:21:00,81.6,64.4,29.86,NNW,341,0.0,0.0,56,0.00,,,0.00,VWS V14.01,2013-06-27 03:21:00,
2013-06-26 20:26:00,81.1,63.4,29.87,NNW,342,0.0,0.0,55,0.00,,,0.00,VWS V14.01,2013-06-27 03:26:00,
2013-06-26 20:31:00,81.0,63.3,29.87,NNW,342,1.0,1.0,55,0.00,,,0.00,VWS V14.01,2013-06-27 03:31:00,
2013-06-26 20:36:00,81.0,63.3,29.87,WNW,301,2.0,2.0,55,0.00,,,0.00,VWS V14.01,2013-06-27 03:36:00,
2013-06-26 20:41:00,81.0,63.3,29.87,NW,322,3.0,3.0,55,0.00,,,0.00,VWS V14.01,2013-06-27 03:41:00,
2013-06-26 20:46:00,81.1,63.4,29.87,NW,311,3.0,3.0,55,0.00,,,0.00,VWS V14.01,2013-06-27 03:46:00,
2013-06-26 20:51:00,81.0,63.3,29.88,NW,324,2.0,2.0,55,0.00,,,0.00,VWS V14.01,2013-06-27 03:51:00,
2013-06-26 20:56:00,80.9,63.2,29.88,NW,307,1.0,2.0,55,0.00,,,0.00,VWS V14.01,2013-06-27 03:56:00,
2013-06-26 21:01:00,80.8,63.7,29.88,NW,307,0.0,0.0,56,0.00,,,0.00,VWS V14.01,2013-06-27 04:01:00,
2013-06-26 21:06:00,80.6,63.0,29.88,WNW,290,1.0,1.0,55,0.00,,,0.00,VWS V14.01,2013-06-27 04:06:00,
2013-06-26 21:11:00,80.5,62.9,29.88,NW,306,1.0,2.0,55,0.00,,,0.00,VWS V14.01,2013-06-27 04:11:00,
2013-06-26 21:16:00,80.5,62.9,29.88,NW,326,3.0,3.0,55,0.00,,,0.00,VWS V14.01,2013-06-27 04:16:00,
2013-06-26 21:21:00,80.3,63.2,29.89,NW,319,1.0,2.0,56,0.00,,,0.00,VWS V14.01,2013-06-27 04:21:00,
2013-06-26 21:26:00,80.0,62.9,29.89,NW,313,1.0,1.0,56,0.00,,,0.00,VWS V14.01,2013-06-27 04:26:00,
2013-06-26 21:31:00,79.7,63.1,29.89,NW,318,1.0,1.0,57,0.00,,,0.00,VWS V14.01,2013-06-27 04:31:00,
2013-06-26 21:36:00,79.3,63.3,29.89,North,354,3.0,3.0,58,0.00,,,0.00,VWS V14.01,2013-06-27 04:36:00,
2013-06-26 21:41:00,78.9,63.4,29.90,NW,326,2.0,3.0,59,0.00,,,0.00,VWS V14.01,2013-06-27 04:41:00,
2013-06-26 21:46:00,78.6,63.6,29.90,NNW,329,2.0,2.0,60,0.00,,,0.00,VWS V14.01,2013-06-27 04:46:00,
2013-06-26 21:51:00,78.3,63.8,29.90,NNW,329,0.0,1.0,61,0.00,,,0.00,VWS V14.01,2013-06-27 04:51:00,
2013-06-26 21:56:00,78.0,63.5,29.90,NNW,329,0.0,1.0,61,0.00,,,0.00,VWS V14.01,2013-06-27 04:56:00,
2013-06-26 22:01:00,77.8,63.3,29.90,NNW,329,0.0,0.0,61,0.00,,,0.00,VWS V14.01,2013-06-27 05:01:00,
2013-06-26 22:06:00,77.5,63.0,29.91,NNW,329,0.0,0.0,61,0.00,,,0.00,VWS V14.01,2013-06-27 05:06:00,
2013-06-26 22:11:00,77.0,63.0,29.91,NNW,329,0.0,0.0,62,0.00,,,0.00,VWS V14.01,2013-06-27 05:11:00,
2013-06-26 22:16:00,76.5,62.5,29.91,NNW,329,0.0,0.0,62,0.00,,,0.00,VWS V14.01,2013-06-27 05:16:00,
2013-06-26 22:21:00,76.2,63.1,29.91,NNW,329,0.0,0.0,64,0.00,,,0.00,VWS V14.01,2013-06-27 05:21:00,
2013-06-26 22:26:00,76.1,62.6,29.91,NNW,329,0.0,0.0,63,0.00,,,0.00,VWS V14.01,2013-06-27 05:26:00,
2013-06-26 22:31:00,76.0,62.0,29.91,NNW,329,0.0,0.0,62,0.00,,,0.00,VWS V14.01,2013-06-27 05:31:00,
2013-06-26 22:36:00,75.9,62.0,29.91,NNW,329,0.0,0.0,62,0.00,,,0.00,VWS V14.01,2013-06-27 05:36:00,
2013-06-26 22:41:00,75.7,62.2,29.91,NNW,329,0.0,0.0,63,0.00,,,0.00,VWS V14.01,2013-06-27 05:41:00,
2013-06-26 22:46:00,75.7,62.2,29.91,SE,132,2.0,2.0,63,0.00,,,0.00,VWS V14.01,2013-06-27 05:46:00,
2013-06-26 22:51:00,75.5,62.5,29.91,SSE,150,4.0,5.0,64,0.00,,,0.00,VWS V14.01,2013-06-27 05:51:00,
2013-06-26 22:56:00,74.6,62.5,29.92,SSE,163,5.0,6.0,66,0.00,,,0.00,VWS V14.01,2013-06-27 05:56:00,
2013-06-26 23:01:00,73.1,62.3,29.92,ESE,111,4.0,8.0,69,0.00,,,0.00,VWS V14.01,2013-06-27 06:01:00,
2013-06-26 23:06:00,71.8,62.3,29.92,SSW,197,3.0,7.0,72,0.00,,,0.00,VWS V14.01,2013-06-27 06:06:00,
2013-06-26 23:11:00,70.7,62.0,29.92,SSE,152,8.0,12.0,74,0.00,,,0.00,VWS V14.01,2013-06-27 06:11:00,
2013-06-26 23:16:00,70.0,62.1,29.92,South,181,5.0,13.0,76,0.00,,,0.00,VWS V14.01,2013-06-27 06:16:00,
2013-06-26 23:21:00,69.4,62.2,29.92,SSE,150,8.0,11.0,78,0.00,,,0.00,VWS V14.01,2013-06-27 06:21:00,
2013-06-26 23:26:00,69.0,62.2,29.92,South,191,4.0,8.0,79,0.00,,,0.00,VWS V14.01,2013-06-27 06:26:00,
2013-06-26 23:31:00,69.0,62.2,29.92,SSE,158,4.0,6.0,79,0.00,,,0.00,VWS V14.01,2013-06-27 06:31:00,
2013-06-26 23:36:00,69.1,62.0,29.92,South,183,2.0,5.0,78,0.00,,,0.00,VWS V14.01,2013-06-27 06:36:00,
2013-06-26 23:41:00,69.3,62.2,29.93,SW,217,2.0,4.0,78,0.00,,,0.00,VWS V14.01,2013-06-27 06:41:00,
2013-06-26 23:46:00,69.4,62.2,29.93,South,187,1.0,3.0,78,0.00,,,0.00,VWS V14.01,2013-06-27 06:46:00,
2013-06-26 23:51:00,69.4,62.2,29.93,SSE,161,2.0,6.0,78,0.00,,,0.00,VWS V14.01,2013-06-27 06:51:00,
2013-06-26 23:56:00,69.2,62.1,29.93,SW,221,1.0,5.0,78,0.00,,,0.00,VWS V14.01,2013-06-27 06:56:00,